<?xml version="1.0" encoding="UTF-8"?>
<gpx version="1.1" creator="2bulu-scraper" xmlns="http://www.topografix.com/GPX/1/1">
  <metadata><name>内江隆昌市</name><desc>source: 2bulu.com trackId=87022540; exported 2026-09-01T17:56:35.436Z</desc>
    <bounds minlat="29.2259537" minlon="105.2858177" maxlat="29.2314964" maxlon="105.2927582"/>
    <link href="https://www.2bulu.com/track/t-BKFhlSoY45rp%252FR2KBg5Tzw%253D%253D.htm"><text>2bulu 源页面</text></link>
  </metadata>
  <wpt lat="29.2278564" lon="105.2858441"><ele>405</ele><name>
        </name></wpt>
  <wpt lat="29.2279094" lon="105.2858817"><ele>407</ele><name>
        </name></wpt>
  <wpt lat="29.22792" lon="105.2860758"><ele>405</ele><name>
        </name></wpt>
  <wpt lat="29.2278584" lon="105.2860673"><ele>407</ele><name>
        </name></wpt>
  <wpt lat="29.2275076" lon="105.2861517"><ele>406</ele><name>
        </name></wpt>
  <wpt lat="29.2273663" lon="105.2862202"><ele>406</ele><name>
        </name></wpt>
  <wpt lat="29.2270631" lon="105.2863457"><ele>411</ele><name>
        </name></wpt>
  <wpt lat="29.2268951" lon="105.2863014"><ele>416</ele><name>
        </name></wpt>
  <wpt lat="29.2268664" lon="105.2863708"><ele>416</ele><name>
        </name></wpt>
  <wpt lat="29.2268664" lon="105.2863708"><ele>416</ele><name>
        </name></wpt>
  <wpt lat="29.2266867" lon="105.2865243"><ele>423</ele><name>
        </name></wpt>
  <wpt lat="29.2266867" lon="105.2865243"><ele>423</ele><name>
        </name></wpt>
  <wpt lat="29.2266" lon="105.2866846"><ele>420</ele><name>
        </name></wpt>
  <wpt lat="29.2265583" lon="105.286779"><ele>424</ele><name>
        </name></wpt>
  <wpt lat="29.2267509" lon="105.2866106"><ele>424</ele><name>
        </name></wpt>
  <wpt lat="29.2262579" lon="105.2867554"><ele>425</ele><name>
        </name></wpt>
  <wpt lat="29.2261538" lon="105.2869549"><ele>430</ele><name>
        </name></wpt>
  <wpt lat="29.2260555" lon="105.2870934"><ele>435</ele><name>
        </name></wpt>
  <wpt lat="29.225989" lon="105.2875699"><ele>433</ele><name>
        </name></wpt>
  <wpt lat="29.2261275" lon="105.2888744"><ele>446</ele><name>
        </name></wpt>
  <wpt lat="29.2261191" lon="105.2906097"><ele>465</ele><name>
        </name></wpt>
  <wpt lat="29.2261191" lon="105.2906097"><ele>465</ele><name>
        </name></wpt>
  <wpt lat="29.2273878" lon="105.2919025"><ele>487</ele><name>
        </name></wpt>
  <wpt lat="29.2280567" lon="105.292695"><ele>487</ele><name>
        </name></wpt>
  <wpt lat="29.2289155" lon="105.2911721"><ele>467</ele><name>
        </name></wpt>
  <wpt lat="29.2282606" lon="105.2890812"><ele>455</ele><name>
        </name></wpt>
  <wpt lat="29.2282606" lon="105.2890812"><ele>455</ele><name>
        </name></wpt>
  <wpt lat="29.2287469" lon="105.2878932"><ele>424</ele><name>
        </name></wpt>
  <wpt lat="29.2277215" lon="105.2860096"><ele>411</ele><name>
        </name></wpt>
  <wpt lat="29.2277215" lon="105.2860096"><ele>411</ele><name>
        </name></wpt>
  <wpt lat="29.2277026" lon="105.2859881"><ele>408</ele><name>
        </name></wpt>
  <trk><name>内江隆昌市</name>
      <trkseg>
        <trkpt lat="29.2277873" lon="105.2859829"><ele>404.09</ele><time>2026-07-09T17:18:27.000Z</time></trkpt>
        <trkpt lat="29.2278564" lon="105.2858441"><ele>404.09</ele><time>2026-07-09T17:18:30.000Z</time></trkpt>
        <trkpt lat="29.2279094" lon="105.2858817"><ele>404.52</ele><time>2026-07-09T17:18:48.000Z</time></trkpt>
        <trkpt lat="29.2279008" lon="105.28601"><ele>405.49</ele><time>2026-07-09T17:19:38.000Z</time></trkpt>
        <trkpt lat="29.22792" lon="105.2860758"><ele>406.79</ele><time>2026-07-09T17:19:46.000Z</time></trkpt>
        <trkpt lat="29.2278584" lon="105.2860673"><ele>406.12</ele><time>2026-07-09T17:20:36.000Z</time></trkpt>
        <trkpt lat="29.2279326" lon="105.2860142"><ele>406.46</ele><time>2026-07-09T17:22:02.000Z</time></trkpt>
        <trkpt lat="29.2280312" lon="105.2860266"><ele>404.3</ele><time>2026-07-09T17:22:12.000Z</time></trkpt>
        <trkpt lat="29.2280944" lon="105.2859906"><ele>403.2</ele><time>2026-07-09T17:22:20.000Z</time></trkpt>
        <trkpt lat="29.2280178" lon="105.2860083"><ele>404.59</ele><time>2026-07-09T17:22:24.000Z</time></trkpt>
        <trkpt lat="29.2279007" lon="105.2859984"><ele>404.58</ele><time>2026-07-09T17:22:36.000Z</time></trkpt>
        <trkpt lat="29.2277873" lon="105.2860102"><ele>405.17</ele><time>2026-07-09T17:22:48.000Z</time></trkpt>
        <trkpt lat="29.2276859" lon="105.2860399"><ele>404.48</ele><time>2026-07-09T17:23:00.000Z</time></trkpt>
        <trkpt lat="29.2275975" lon="105.2861085"><ele>405.66</ele><time>2026-07-09T17:23:12.000Z</time></trkpt>
        <trkpt lat="29.2275076" lon="105.2861517"><ele>406.28</ele><time>2026-07-09T17:23:22.000Z</time></trkpt>
        <trkpt lat="29.2274168" lon="105.2861798"><ele>406.13</ele><time>2026-07-09T17:23:34.000Z</time></trkpt>
        <trkpt lat="29.2273663" lon="105.2862202"><ele>406</ele><time>2026-07-09T17:23:40.000Z</time></trkpt>
        <trkpt lat="29.2273029" lon="105.2862753"><ele>406.02</ele><time>2026-07-09T17:24:12.000Z</time></trkpt>
        <trkpt lat="29.2272169" lon="105.2863215"><ele>406.2</ele><time>2026-07-09T17:24:26.000Z</time></trkpt>
        <trkpt lat="29.2271136" lon="105.2863323"><ele>406.27</ele><time>2026-07-09T17:24:38.000Z</time></trkpt>
        <trkpt lat="29.2270631" lon="105.2863457"><ele>406.74</ele><time>2026-07-09T17:24:48.000Z</time></trkpt>
        <trkpt lat="29.2269858" lon="105.2863245"><ele>408.44</ele><time>2026-07-09T17:25:02.000Z</time></trkpt>
        <trkpt lat="29.2268951" lon="105.2863014"><ele>410.57</ele><time>2026-07-09T17:25:14.000Z</time></trkpt>
        <trkpt lat="29.2268664" lon="105.2863708"><ele>413</ele><time>2026-07-09T17:25:38.000Z</time></trkpt>
        <trkpt lat="29.2268551" lon="105.2864749"><ele>414.26</ele><time>2026-07-09T17:26:33.000Z</time></trkpt>
        <trkpt lat="29.2267782" lon="105.2865178"><ele>413.28</ele><time>2026-07-09T17:27:27.000Z</time></trkpt>
        <trkpt lat="29.2266867" lon="105.2865243"><ele>416.7</ele><time>2026-07-09T17:27:47.000Z</time></trkpt>
        <trkpt lat="29.2266442" lon="105.2865968"><ele>419.36</ele><time>2026-07-09T17:28:41.000Z</time></trkpt>
        <trkpt lat="29.2266" lon="105.2866846"><ele>419.66</ele><time>2026-07-09T17:29:03.000Z</time></trkpt>
        <trkpt lat="29.2265583" lon="105.286779"><ele>419.94</ele><time>2026-07-09T17:29:30.000Z</time></trkpt>
        <trkpt lat="29.2265034" lon="105.2867841"><ele>421.87</ele><time>2026-07-09T17:29:40.000Z</time></trkpt>
        <trkpt lat="29.2265237" lon="105.2867091"><ele>421.33</ele><time>2026-07-09T17:30:04.000Z</time></trkpt>
        <trkpt lat="29.2266145" lon="105.28667"><ele>421.46</ele><time>2026-07-09T17:30:30.000Z</time></trkpt>
        <trkpt lat="29.2267244" lon="105.2866646"><ele>421.83</ele><time>2026-07-09T17:30:46.000Z</time></trkpt>
        <trkpt lat="29.2267509" lon="105.2866106"><ele>423.18</ele><time>2026-07-09T17:30:52.000Z</time></trkpt>
        <trkpt lat="29.2266838" lon="105.2865483"><ele>423.73</ele><time>2026-07-09T17:31:14.000Z</time></trkpt>
        <trkpt lat="29.2265787" lon="105.2865065"><ele>422.01</ele><time>2026-07-09T17:31:22.000Z</time></trkpt>
        <trkpt lat="29.2264599" lon="105.2865023"><ele>421</ele><time>2026-07-09T17:31:32.000Z</time></trkpt>
        <trkpt lat="29.2263684" lon="105.2865567"><ele>421.08</ele><time>2026-07-09T17:31:42.000Z</time></trkpt>
        <trkpt lat="29.2263128" lon="105.2866556"><ele>422.31</ele><time>2026-07-09T17:31:54.000Z</time></trkpt>
        <trkpt lat="29.2262579" lon="105.2867554"><ele>423.43</ele><time>2026-07-09T17:32:10.000Z</time></trkpt>
        <trkpt lat="29.2261822" lon="105.2868457"><ele>424.13</ele><time>2026-07-09T17:32:30.000Z</time></trkpt>
        <trkpt lat="29.2261538" lon="105.2869549"><ele>425.31</ele><time>2026-07-09T17:32:40.000Z</time></trkpt>
        <trkpt lat="29.2261728" lon="105.28707"><ele>427.27</ele><time>2026-07-09T17:32:58.000Z</time></trkpt>
        <trkpt lat="29.2261222" lon="105.2871398"><ele>428.75</ele><time>2026-07-09T17:33:08.000Z</time></trkpt>
        <trkpt lat="29.2260479" lon="105.2872093"><ele>429.91</ele><time>2026-07-09T17:33:18.000Z</time></trkpt>
        <trkpt lat="29.2260473" lon="105.2872739"><ele>430.49</ele><time>2026-07-09T17:33:32.000Z</time></trkpt>
        <trkpt lat="29.2260374" lon="105.2872069"><ele>430.75</ele><time>2026-07-09T17:33:52.000Z</time></trkpt>
        <trkpt lat="29.2260555" lon="105.2870934"><ele>431.35</ele><time>2026-07-09T17:34:06.000Z</time></trkpt>
        <trkpt lat="29.2260123" lon="105.2871015"><ele>432.95</ele><time>2026-07-09T17:34:58.000Z</time></trkpt>
        <trkpt lat="29.2259807" lon="105.2872017"><ele>433.3</ele><time>2026-07-09T17:35:10.000Z</time></trkpt>
        <trkpt lat="29.2259724" lon="105.2873243"><ele>433.68</ele><time>2026-07-09T17:35:20.000Z</time></trkpt>
        <trkpt lat="29.2259778" lon="105.2874473"><ele>433.68</ele><time>2026-07-09T17:35:30.000Z</time></trkpt>
        <trkpt lat="29.225989" lon="105.2875699"><ele>434.29</ele><time>2026-07-09T17:35:40.000Z</time></trkpt>
        <trkpt lat="29.2260081" lon="105.2876839"><ele>433.83</ele><time>2026-07-09T17:36:00.000Z</time></trkpt>
        <trkpt lat="29.2260246" lon="105.2877951"><ele>432.96</ele><time>2026-07-09T17:36:08.000Z</time></trkpt>
        <trkpt lat="29.2260339" lon="105.2879064"><ele>432.45</ele><time>2026-07-09T17:36:18.000Z</time></trkpt>
        <trkpt lat="29.2260409" lon="105.2880248"><ele>433.23</ele><time>2026-07-09T17:36:30.000Z</time></trkpt>
        <trkpt lat="29.2260463" lon="105.2881375"><ele>433.85</ele><time>2026-07-09T17:36:42.000Z</time></trkpt>
        <trkpt lat="29.2260629" lon="105.2882431"><ele>435.31</ele><time>2026-07-09T17:36:54.000Z</time></trkpt>
        <trkpt lat="29.2260712" lon="105.2883517"><ele>436.02</ele><time>2026-07-09T17:37:08.000Z</time></trkpt>
        <trkpt lat="29.2260805" lon="105.2884584"><ele>437.1</ele><time>2026-07-09T17:37:20.000Z</time></trkpt>
        <trkpt lat="29.2261002" lon="105.2885637"><ele>437.67</ele><time>2026-07-09T17:37:34.000Z</time></trkpt>
        <trkpt lat="29.2261319" lon="105.2886691"><ele>438.88</ele><time>2026-07-09T17:37:48.000Z</time></trkpt>
        <trkpt lat="29.2261654" lon="105.2887775"><ele>440.39</ele><time>2026-07-09T17:38:02.000Z</time></trkpt>
        <trkpt lat="29.2261275" lon="105.2888744"><ele>442.19</ele><time>2026-07-09T17:38:14.000Z</time></trkpt>
        <trkpt lat="29.2260789" lon="105.2889778"><ele>443.88</ele><time>2026-07-09T17:38:26.000Z</time></trkpt>
        <trkpt lat="29.226024" lon="105.2890742"><ele>445.49</ele><time>2026-07-09T17:38:42.000Z</time></trkpt>
        <trkpt lat="29.2259915" lon="105.2891776"><ele>447.01</ele><time>2026-07-09T17:38:58.000Z</time></trkpt>
        <trkpt lat="29.225969" lon="105.2892859"><ele>448.9</ele><time>2026-07-09T17:39:14.000Z</time></trkpt>
        <trkpt lat="29.2259537" lon="105.2894034"><ele>450.28</ele><time>2026-07-09T17:39:28.000Z</time></trkpt>
        <trkpt lat="29.2259602" lon="105.2895114"><ele>451.44</ele><time>2026-07-09T17:39:40.000Z</time></trkpt>
        <trkpt lat="29.2259927" lon="105.2896186"><ele>453.25</ele><time>2026-07-09T17:39:58.000Z</time></trkpt>
        <trkpt lat="29.2260341" lon="105.2897159"><ele>455.27</ele><time>2026-07-09T17:40:18.000Z</time></trkpt>
        <trkpt lat="29.2260792" lon="105.2898081"><ele>457.92</ele><time>2026-07-09T17:40:34.000Z</time></trkpt>
        <trkpt lat="29.2261087" lon="105.2899179"><ele>459.39</ele><time>2026-07-09T17:40:48.000Z</time></trkpt>
        <trkpt lat="29.2261206" lon="105.2900362"><ele>461.01</ele><time>2026-07-09T17:41:00.000Z</time></trkpt>
        <trkpt lat="29.2261133" lon="105.2901528"><ele>461.98</ele><time>2026-07-09T17:41:12.000Z</time></trkpt>
        <trkpt lat="29.2260956" lon="105.2902663"><ele>462.1</ele><time>2026-07-09T17:41:26.000Z</time></trkpt>
        <trkpt lat="29.2260949" lon="105.2903863"><ele>462.85</ele><time>2026-07-09T17:41:40.000Z</time></trkpt>
        <trkpt lat="29.2261012" lon="105.2904984"><ele>463.33</ele><time>2026-07-09T17:41:50.000Z</time></trkpt>
        <trkpt lat="29.2261191" lon="105.2906097"><ele>463.33</ele><time>2026-07-09T17:42:04.000Z</time></trkpt>
        <trkpt lat="29.2261798" lon="105.2906844"><ele>463.87</ele><time>2026-07-09T17:42:38.000Z</time></trkpt>
        <trkpt lat="29.2262335" lon="105.290779"><ele>465.52</ele><time>2026-07-09T17:42:50.000Z</time></trkpt>
        <trkpt lat="29.2263042" lon="105.2908527"><ele>467.24</ele><time>2026-07-09T17:43:02.000Z</time></trkpt>
        <trkpt lat="29.2263913" lon="105.2909052"><ele>468.25</ele><time>2026-07-09T17:43:14.000Z</time></trkpt>
        <trkpt lat="29.2264798" lon="105.2909636"><ele>468.62</ele><time>2026-07-09T17:43:26.000Z</time></trkpt>
        <trkpt lat="29.2265594" lon="105.2910274"><ele>469.62</ele><time>2026-07-09T17:43:38.000Z</time></trkpt>
        <trkpt lat="29.2266178" lon="105.2911071"><ele>471.61</ele><time>2026-07-09T17:43:52.000Z</time></trkpt>
        <trkpt lat="29.2266816" lon="105.2911808"><ele>473.11</ele><time>2026-07-09T17:44:06.000Z</time></trkpt>
        <trkpt lat="29.2267636" lon="105.2912323"><ele>474.63</ele><time>2026-07-09T17:44:18.000Z</time></trkpt>
        <trkpt lat="29.2268402" lon="105.2913048"><ele>476.57</ele><time>2026-07-09T17:44:30.000Z</time></trkpt>
        <trkpt lat="29.226902" lon="105.2913878"><ele>478.18</ele><time>2026-07-09T17:44:46.000Z</time></trkpt>
        <trkpt lat="29.2269467" lon="105.2914813"><ele>478.85</ele><time>2026-07-09T17:45:00.000Z</time></trkpt>
        <trkpt lat="29.2270009" lon="105.2915752"><ele>480.14</ele><time>2026-07-09T17:45:26.000Z</time></trkpt>
        <trkpt lat="29.2270632" lon="105.291668"><ele>480.18</ele><time>2026-07-09T17:45:54.000Z</time></trkpt>
        <trkpt lat="29.2271373" lon="105.2917325"><ele>481.11</ele><time>2026-07-09T17:46:08.000Z</time></trkpt>
        <trkpt lat="29.2272227" lon="105.2917909"><ele>482.12</ele><time>2026-07-09T17:46:26.000Z</time></trkpt>
        <trkpt lat="29.2273128" lon="105.2918321"><ele>482.92</ele><time>2026-07-09T17:46:40.000Z</time></trkpt>
        <trkpt lat="29.2273878" lon="105.2919025"><ele>483.49</ele><time>2026-07-09T17:46:54.000Z</time></trkpt>
        <trkpt lat="29.2274349" lon="105.2920084"><ele>484.95</ele><time>2026-07-09T17:47:24.000Z</time></trkpt>
        <trkpt lat="29.2274047" lon="105.2921047"><ele>485.42</ele><time>2026-07-09T17:47:34.000Z</time></trkpt>
        <trkpt lat="29.2274421" lon="105.2921783"><ele>486.32</ele><time>2026-07-09T17:48:00.000Z</time></trkpt>
        <trkpt lat="29.2275113" lon="105.2922549"><ele>487.25</ele><time>2026-07-09T17:48:14.000Z</time></trkpt>
        <trkpt lat="29.227593" lon="105.2923216"><ele>487.98</ele><time>2026-07-09T17:48:26.000Z</time></trkpt>
        <trkpt lat="29.227659" lon="105.2924038"><ele>487.98</ele><time>2026-07-09T17:48:36.000Z</time></trkpt>
        <trkpt lat="29.2277488" lon="105.292441"><ele>487.86</ele><time>2026-07-09T17:48:46.000Z</time></trkpt>
        <trkpt lat="29.2278314" lon="105.2924884"><ele>488.95</ele><time>2026-07-09T17:48:56.000Z</time></trkpt>
        <trkpt lat="29.2279092" lon="105.2925506"><ele>488.64</ele><time>2026-07-09T17:49:06.000Z</time></trkpt>
        <trkpt lat="29.2279816" lon="105.2926255"><ele>488.39</ele><time>2026-07-09T17:49:16.000Z</time></trkpt>
        <trkpt lat="29.2280567" lon="105.292695"><ele>488.08</ele><time>2026-07-09T17:49:30.000Z</time></trkpt>
        <trkpt lat="29.228134" lon="105.2927582"><ele>487.53</ele><time>2026-07-09T17:49:58.000Z</time></trkpt>
        <trkpt lat="29.2282137" lon="105.2927247"><ele>487.48</ele><time>2026-07-09T17:50:16.000Z</time></trkpt>
        <trkpt lat="29.2282548" lon="105.2926305"><ele>486.92</ele><time>2026-07-09T17:50:30.000Z</time></trkpt>
        <trkpt lat="29.2282687" lon="105.2925042"><ele>485.85</ele><time>2026-07-09T17:50:42.000Z</time></trkpt>
        <trkpt lat="29.2282931" lon="105.2923765"><ele>484.61</ele><time>2026-07-09T17:50:52.000Z</time></trkpt>
        <trkpt lat="29.2283245" lon="105.2922556"><ele>484.11</ele><time>2026-07-09T17:51:04.000Z</time></trkpt>
        <trkpt lat="29.2283655" lon="105.2921538"><ele>483.07</ele><time>2026-07-09T17:51:16.000Z</time></trkpt>
        <trkpt lat="29.2284076" lon="105.2920584"><ele>482.39</ele><time>2026-07-09T17:51:28.000Z</time></trkpt>
        <trkpt lat="29.2284581" lon="105.2919699"><ele>481.48</ele><time>2026-07-09T17:51:42.000Z</time></trkpt>
        <trkpt lat="29.2285094" lon="105.2918812"><ele>481.3</ele><time>2026-07-09T17:51:58.000Z</time></trkpt>
        <trkpt lat="29.228569" lon="105.2917952"><ele>481.35</ele><time>2026-07-09T17:52:14.000Z</time></trkpt>
        <trkpt lat="29.2286224" lon="105.2917078"><ele>479.78</ele><time>2026-07-09T17:52:28.000Z</time></trkpt>
        <trkpt lat="29.2286779" lon="105.2916246"><ele>477.27</ele><time>2026-07-09T17:52:44.000Z</time></trkpt>
        <trkpt lat="29.2287468" lon="105.2915478"><ele>475.41</ele><time>2026-07-09T17:52:58.000Z</time></trkpt>
        <trkpt lat="29.2288064" lon="105.2914646"><ele>473.03</ele><time>2026-07-09T17:53:16.000Z</time></trkpt>
        <trkpt lat="29.2288462" lon="105.2913702"><ele>470.57</ele><time>2026-07-09T17:53:28.000Z</time></trkpt>
        <trkpt lat="29.2288867" lon="105.291273"><ele>468.86</ele><time>2026-07-09T17:53:38.000Z</time></trkpt>
        <trkpt lat="29.2289155" lon="105.2911721"><ele>467.71</ele><time>2026-07-09T17:53:48.000Z</time></trkpt>
        <trkpt lat="29.2289079" lon="105.2910643"><ele>467.31</ele><time>2026-07-09T17:54:02.000Z</time></trkpt>
        <trkpt lat="29.2288522" lon="105.2909679"><ele>466.62</ele><time>2026-07-09T17:54:14.000Z</time></trkpt>
        <trkpt lat="29.2287864" lon="105.2908838"><ele>466.05</ele><time>2026-07-09T17:54:26.000Z</time></trkpt>
        <trkpt lat="29.2287217" lon="105.2908021"><ele>465.07</ele><time>2026-07-09T17:54:36.000Z</time></trkpt>
        <trkpt lat="29.2286504" lon="105.2907255"><ele>464</ele><time>2026-07-09T17:54:46.000Z</time></trkpt>
        <trkpt lat="29.2285611" lon="105.2906637"><ele>463.17</ele><time>2026-07-09T17:54:56.000Z</time></trkpt>
        <trkpt lat="29.2284701" lon="105.2906019"><ele>462.82</ele><time>2026-07-09T17:55:06.000Z</time></trkpt>
        <trkpt lat="29.2284069" lon="105.2905091"><ele>462.49</ele><time>2026-07-09T17:55:16.000Z</time></trkpt>
        <trkpt lat="29.2283731" lon="105.2903939"><ele>462.38</ele><time>2026-07-09T17:55:28.000Z</time></trkpt>
        <trkpt lat="29.2283692" lon="105.2902686"><ele>462.67</ele><time>2026-07-09T17:55:40.000Z</time></trkpt>
        <trkpt lat="29.228384" lon="105.2901567"><ele>462.93</ele><time>2026-07-09T17:55:50.000Z</time></trkpt>
        <trkpt lat="29.2284144" lon="105.2900498"><ele>462.86</ele><time>2026-07-09T17:56:02.000Z</time></trkpt>
        <trkpt lat="29.2283944" lon="105.2899518"><ele>462.2</ele><time>2026-07-09T17:56:24.000Z</time></trkpt>
        <trkpt lat="29.228363" lon="105.2898504"><ele>462.1</ele><time>2026-07-09T17:56:36.000Z</time></trkpt>
        <trkpt lat="29.2283442" lon="105.2897405"><ele>462.31</ele><time>2026-07-09T17:56:46.000Z</time></trkpt>
        <trkpt lat="29.22835" lon="105.2896245"><ele>462.33</ele><time>2026-07-09T17:56:58.000Z</time></trkpt>
        <trkpt lat="29.2283429" lon="105.2895167"><ele>462.28</ele><time>2026-07-09T17:57:10.000Z</time></trkpt>
        <trkpt lat="29.2283315" lon="105.2894072"><ele>461.25</ele><time>2026-07-09T17:57:22.000Z</time></trkpt>
        <trkpt lat="29.2283114" lon="105.2892965"><ele>460.29</ele><time>2026-07-09T17:57:34.000Z</time></trkpt>
        <trkpt lat="29.2282867" lon="105.2891849"><ele>458.9</ele><time>2026-07-09T17:57:46.000Z</time></trkpt>
        <trkpt lat="29.2282606" lon="105.2890812"><ele>457.58</ele><time>2026-07-09T17:57:58.000Z</time></trkpt>
        <trkpt lat="29.2282733" lon="105.2889692"><ele>456.52</ele><time>2026-07-09T17:58:14.000Z</time></trkpt>
        <trkpt lat="29.2282777" lon="105.2888551"><ele>455.01</ele><time>2026-07-09T17:58:24.000Z</time></trkpt>
        <trkpt lat="29.2282875" lon="105.2887385"><ele>452.33</ele><time>2026-07-09T17:58:36.000Z</time></trkpt>
        <trkpt lat="29.2283197" lon="105.288628"><ele>450.6</ele><time>2026-07-09T17:58:48.000Z</time></trkpt>
        <trkpt lat="29.228365" lon="105.2885244"><ele>448.46</ele><time>2026-07-09T17:59:04.000Z</time></trkpt>
        <trkpt lat="29.2284152" lon="105.2884329"><ele>445.88</ele><time>2026-07-09T17:59:16.000Z</time></trkpt>
        <trkpt lat="29.2284702" lon="105.2883324"><ele>443.49</ele><time>2026-07-09T17:59:30.000Z</time></trkpt>
        <trkpt lat="29.2285309" lon="105.28824"><ele>440.99</ele><time>2026-07-09T17:59:42.000Z</time></trkpt>
        <trkpt lat="29.2285951" lon="105.2881581"><ele>438.61</ele><time>2026-07-09T17:59:56.000Z</time></trkpt>
        <trkpt lat="29.2286461" lon="105.2880691"><ele>436.24</ele><time>2026-07-09T18:00:10.000Z</time></trkpt>
        <trkpt lat="29.2286889" lon="105.2879657"><ele>433.72</ele><time>2026-07-09T18:00:26.000Z</time></trkpt>
        <trkpt lat="29.2287277" lon="105.2878525"><ele>430.54</ele><time>2026-07-09T18:00:38.000Z</time></trkpt>
        <trkpt lat="29.2286867" lon="105.2878761"><ele>428.2</ele><time>2026-07-09T18:00:56.000Z</time></trkpt>
        <trkpt lat="29.2287469" lon="105.2878932"><ele>427.53</ele><time>2026-07-09T18:01:06.000Z</time></trkpt>
        <trkpt lat="29.2288045" lon="105.2879165"><ele>425.82</ele><time>2026-07-09T18:01:16.000Z</time></trkpt>
        <trkpt lat="29.2289017" lon="105.2879052"><ele>424.07</ele><time>2026-07-09T18:01:26.000Z</time></trkpt>
        <trkpt lat="29.228976" lon="105.2878397"><ele>422.53</ele><time>2026-07-09T18:01:38.000Z</time></trkpt>
        <trkpt lat="29.2290091" lon="105.2877335"><ele>419.46</ele><time>2026-07-09T18:01:48.000Z</time></trkpt>
        <trkpt lat="29.228997" lon="105.287604"><ele>416.99</ele><time>2026-07-09T18:01:58.000Z</time></trkpt>
        <trkpt lat="29.2289615" lon="105.2874805"><ele>414.24</ele><time>2026-07-09T18:02:10.000Z</time></trkpt>
        <trkpt lat="29.2289056" lon="105.2873731"><ele>412.23</ele><time>2026-07-09T18:02:20.000Z</time></trkpt>
        <trkpt lat="29.2288477" lon="105.2872722"><ele>409.87</ele><time>2026-07-09T18:02:30.000Z</time></trkpt>
        <trkpt lat="29.2288247" lon="105.2871589"><ele>408.67</ele><time>2026-07-09T18:02:38.000Z</time></trkpt>
        <trkpt lat="29.2287629" lon="105.2870837"><ele>407.64</ele><time>2026-07-09T18:02:46.000Z</time></trkpt>
        <trkpt lat="29.2287053" lon="105.2869909"><ele>406.39</ele><time>2026-07-09T18:02:56.000Z</time></trkpt>
        <trkpt lat="29.2286224" lon="105.2869161"><ele>405.25</ele><time>2026-07-09T18:03:06.000Z</time></trkpt>
        <trkpt lat="29.2285358" lon="105.2868415"><ele>404.96</ele><time>2026-07-09T18:03:16.000Z</time></trkpt>
        <trkpt lat="29.2284471" lon="105.2867689"><ele>405.24</ele><time>2026-07-09T18:03:26.000Z</time></trkpt>
        <trkpt lat="29.2283696" lon="105.2866972"><ele>406.85</ele><time>2026-07-09T18:03:36.000Z</time></trkpt>
        <trkpt lat="29.2282887" lon="105.2866315"><ele>408.12</ele><time>2026-07-09T18:03:48.000Z</time></trkpt>
        <trkpt lat="29.2282092" lon="105.2865657"><ele>408.65</ele><time>2026-07-09T18:03:58.000Z</time></trkpt>
        <trkpt lat="29.2281286" lon="105.2865074"><ele>408.91</ele><time>2026-07-09T18:04:08.000Z</time></trkpt>
        <trkpt lat="29.2280308" lon="105.2864899"><ele>408.53</ele><time>2026-07-09T18:04:32.000Z</time></trkpt>
        <trkpt lat="29.2279399" lon="105.2864656"><ele>408.2</ele><time>2026-07-09T18:04:44.000Z</time></trkpt>
        <trkpt lat="29.2278396" lon="105.2864517"><ele>408.31</ele><time>2026-07-09T18:04:54.000Z</time></trkpt>
        <trkpt lat="29.2277436" lon="105.2864558"><ele>407.19</ele><time>2026-07-09T18:05:02.000Z</time></trkpt>
        <trkpt lat="29.2278215" lon="105.2863688"><ele>408.23</ele><time>2026-07-09T18:05:13.000Z</time></trkpt>
        <trkpt lat="29.22761" lon="105.2865301"><ele>408.49</ele><time>2026-07-09T18:05:22.000Z</time></trkpt>
        <trkpt lat="29.2277437" lon="105.2865939"><ele>407.87</ele><time>2026-07-09T18:12:21.000Z</time></trkpt>
        <trkpt lat="29.2277582" lon="105.2865477"><ele>408.7</ele><time>2026-07-09T18:12:24.000Z</time></trkpt>
        <trkpt lat="29.2277592" lon="105.2865196"><ele>409.6</ele><time>2026-07-09T18:12:44.000Z</time></trkpt>
        <trkpt lat="29.2277813" lon="105.2864181"><ele>409.53</ele><time>2026-07-09T18:13:22.000Z</time></trkpt>
        <trkpt lat="29.2277974" lon="105.2863037"><ele>408.62</ele><time>2026-07-09T18:13:26.000Z</time></trkpt>
        <trkpt lat="29.2278495" lon="105.2862191"><ele>408.7</ele><time>2026-07-09T18:13:36.000Z</time></trkpt>
        <trkpt lat="29.2278986" lon="105.2861254"><ele>407.93</ele><time>2026-07-09T18:13:42.000Z</time></trkpt>
        <trkpt lat="29.2278409" lon="105.2860682"><ele>401.6</ele><time>2026-07-09T18:13:50.000Z</time></trkpt>
        <trkpt lat="29.2278688" lon="105.2859971"><ele>400.88</ele><time>2026-07-09T18:14:08.000Z</time></trkpt>
        <trkpt lat="29.2279231" lon="105.2859154"><ele>401.38</ele><time>2026-07-09T18:14:18.000Z</time></trkpt>
        <trkpt lat="29.2279548" lon="105.2858177"><ele>401.91</ele><time>2026-07-09T18:14:36.000Z</time></trkpt>
        <trkpt lat="29.227996" lon="105.2858606"><ele>402.3</ele><time>2026-07-09T18:15:26.000Z</time></trkpt>
        <trkpt lat="29.2280223" lon="105.2858863"><ele>403.93</ele><time>2026-07-09T18:15:32.000Z</time></trkpt>
        <trkpt lat="29.2279948" lon="105.2859704"><ele>405.73</ele><time>2026-07-09T18:16:12.000Z</time></trkpt>
        <trkpt lat="29.2278947" lon="105.2860136"><ele>407.81</ele><time>2026-07-09T18:16:22.000Z</time></trkpt>
        <trkpt lat="29.2277665" lon="105.2860762"><ele>407.23</ele><time>2026-07-09T18:19:00.000Z</time></trkpt>
        <trkpt lat="29.2278245" lon="105.2860481"><ele>403.58</ele><time>2026-07-09T18:19:04.000Z</time></trkpt>
        <trkpt lat="29.2277215" lon="105.2860096"><ele>402.52</ele><time>2026-07-09T18:20:08.000Z</time></trkpt>
        <trkpt lat="29.2277026" lon="105.2859881"><ele>406.19</ele><time>2026-07-09T18:20:22.000Z</time></trkpt>
        <trkpt lat="29.2277824" lon="105.2860002"><ele>406.93</ele><time>2026-07-09T18:20:58.000Z</time></trkpt>
        <trkpt lat="29.227803" lon="105.286002"><ele>406.89</ele><time>2026-07-09T18:21:04.000Z</time></trkpt>
        <trkpt lat="29.2277033" lon="105.2860145"><ele>407.35</ele><time>2026-07-09T18:23:48.000Z</time></trkpt>
        <trkpt lat="29.2276142" lon="105.2859823"><ele>410.1</ele><time>2026-07-09T18:23:58.000Z</time></trkpt>
        <trkpt lat="29.2275563" lon="105.285989"><ele>410.69</ele><time>2026-07-09T18:24:10.000Z</time></trkpt>
        <trkpt lat="29.2276161" lon="105.2859884"><ele>408.19</ele><time>2026-07-09T18:24:20.000Z</time></trkpt>
        <trkpt lat="29.2275902" lon="105.2860512"><ele>406.59</ele><time>2026-07-09T18:25:04.000Z</time></trkpt>
        <trkpt lat="29.2276112" lon="105.2861571"><ele>407.29</ele><time>2026-07-09T18:25:14.000Z</time></trkpt>
        <trkpt lat="29.2276879" lon="105.2862212"><ele>406.88</ele><time>2026-07-09T18:25:18.000Z</time></trkpt>
        <trkpt lat="29.2277818" lon="105.2862699"><ele>406.81</ele><time>2026-07-09T18:25:26.000Z</time></trkpt>
        <trkpt lat="29.227872" lon="105.2863205"><ele>406.96</ele><time>2026-07-09T18:25:38.000Z</time></trkpt>
        <trkpt lat="29.2279674" lon="105.2863706"><ele>406.65</ele><time>2026-07-09T18:25:44.000Z</time></trkpt>
        <trkpt lat="29.2280259" lon="105.286418"><ele>406.85</ele><time>2026-07-09T18:25:50.000Z</time></trkpt>
        <trkpt lat="29.2280984" lon="105.2864685"><ele>407.31</ele><time>2026-07-09T18:26:02.000Z</time></trkpt>
        <trkpt lat="29.2281973" lon="105.2865448"><ele>407.96</ele><time>2026-07-09T18:26:08.000Z</time></trkpt>
        <trkpt lat="29.2283238" lon="105.2866421"><ele>407.68</ele><time>2026-07-09T18:26:12.000Z</time></trkpt>
        <trkpt lat="29.228422" lon="105.2867148"><ele>406.58</ele><time>2026-07-09T18:26:14.000Z</time></trkpt>
        <trkpt lat="29.2284986" lon="105.286797"><ele>405.95</ele><time>2026-07-09T18:26:16.000Z</time></trkpt>
        <trkpt lat="29.2285706" lon="105.2868851"><ele>405.92</ele><time>2026-07-09T18:26:18.000Z</time></trkpt>
        <trkpt lat="29.2286474" lon="105.2869689"><ele>405.8</ele><time>2026-07-09T18:26:20.000Z</time></trkpt>
        <trkpt lat="29.2287148" lon="105.2870473"><ele>405.5</ele><time>2026-07-09T18:26:22.000Z</time></trkpt>
        <trkpt lat="29.2287811" lon="105.2871205"><ele>405.2</ele><time>2026-07-09T18:26:24.000Z</time></trkpt>
        <trkpt lat="29.2289026" lon="105.2872444"><ele>404.92</ele><time>2026-07-09T18:26:28.000Z</time></trkpt>
        <trkpt lat="29.2290134" lon="105.2873302"><ele>404.79</ele><time>2026-07-09T18:26:30.000Z</time></trkpt>
        <trkpt lat="29.229121" lon="105.2873802"><ele>404.73</ele><time>2026-07-09T18:26:32.000Z</time></trkpt>
        <trkpt lat="29.2292227" lon="105.2874206"><ele>404.63</ele><time>2026-07-09T18:26:34.000Z</time></trkpt>
        <trkpt lat="29.2293251" lon="105.2874723"><ele>404.58</ele><time>2026-07-09T18:26:36.000Z</time></trkpt>
        <trkpt lat="29.2294219" lon="105.2875584"><ele>404.39</ele><time>2026-07-09T18:26:38.000Z</time></trkpt>
        <trkpt lat="29.2295218" lon="105.28767"><ele>403.82</ele><time>2026-07-09T18:26:40.000Z</time></trkpt>
        <trkpt lat="29.2296306" lon="105.2877768"><ele>402.5</ele><time>2026-07-09T18:26:42.000Z</time></trkpt>
        <trkpt lat="29.229747" lon="105.2879059"><ele>401.4</ele><time>2026-07-09T18:26:44.000Z</time></trkpt>
        <trkpt lat="29.2298484" lon="105.2880177"><ele>401.13</ele><time>2026-07-09T18:26:46.000Z</time></trkpt>
        <trkpt lat="29.229887" lon="105.2881417"><ele>401.26</ele><time>2026-07-09T18:26:48.000Z</time></trkpt>
        <trkpt lat="29.2298709" lon="105.288274"><ele>400.81</ele><time>2026-07-09T18:26:50.000Z</time></trkpt>
        <trkpt lat="29.2298397" lon="105.2884018"><ele>400.58</ele><time>2026-07-09T18:26:52.000Z</time></trkpt>
        <trkpt lat="29.2298066" lon="105.2885302"><ele>399.47</ele><time>2026-07-09T18:26:54.000Z</time></trkpt>
        <trkpt lat="29.2297785" lon="105.2886621"><ele>398.27</ele><time>2026-07-09T18:26:56.000Z</time></trkpt>
        <trkpt lat="29.2297897" lon="105.2887861"><ele>397.73</ele><time>2026-07-09T18:26:58.000Z</time></trkpt>
        <trkpt lat="29.2298577" lon="105.2888791"><ele>397.88</ele><time>2026-07-09T18:27:00.000Z</time></trkpt>
        <trkpt lat="29.2299672" lon="105.2889441"><ele>398.22</ele><time>2026-07-09T18:27:02.000Z</time></trkpt>
        <trkpt lat="29.2300773" lon="105.2890106"><ele>398.53</ele><time>2026-07-09T18:27:04.000Z</time></trkpt>
        <trkpt lat="29.2301743" lon="105.2891033"><ele>398.94</ele><time>2026-07-09T18:27:06.000Z</time></trkpt>
        <trkpt lat="29.2302341" lon="105.2892164"><ele>399.64</ele><time>2026-07-09T18:27:08.000Z</time></trkpt>
        <trkpt lat="29.230239" lon="105.2893374"><ele>400.03</ele><time>2026-07-09T18:27:10.000Z</time></trkpt>
        <trkpt lat="29.2302115" lon="105.289479"><ele>400.09</ele><time>2026-07-09T18:27:12.000Z</time></trkpt>
        <trkpt lat="29.2301545" lon="105.2896314"><ele>399.82</ele><time>2026-07-09T18:27:14.000Z</time></trkpt>
        <trkpt lat="29.2300926" lon="105.2897928"><ele>399.26</ele><time>2026-07-09T18:27:16.000Z</time></trkpt>
        <trkpt lat="29.230068" lon="105.2899592"><ele>398.89</ele><time>2026-07-09T18:27:18.000Z</time></trkpt>
        <trkpt lat="29.2300862" lon="105.2901313"><ele>398.49</ele><time>2026-07-09T18:27:20.000Z</time></trkpt>
        <trkpt lat="29.2301469" lon="105.29027"><ele>398.4</ele><time>2026-07-09T18:27:22.000Z</time></trkpt>
        <trkpt lat="29.2302557" lon="105.2903564"><ele>397.8</ele><time>2026-07-09T18:27:24.000Z</time></trkpt>
        <trkpt lat="29.2303815" lon="105.2903849"><ele>397.75</ele><time>2026-07-09T18:27:26.000Z</time></trkpt>
        <trkpt lat="29.2305196" lon="105.2903776"><ele>397.49</ele><time>2026-07-09T18:27:28.000Z</time></trkpt>
        <trkpt lat="29.2306395" lon="105.2903284"><ele>397.49</ele><time>2026-07-09T18:27:30.000Z</time></trkpt>
        <trkpt lat="29.2307334" lon="105.2902415"><ele>397.52</ele><time>2026-07-09T18:27:32.000Z</time></trkpt>
        <trkpt lat="29.2308188" lon="105.290148"><ele>397.59</ele><time>2026-07-09T18:27:34.000Z</time></trkpt>
        <trkpt lat="29.2308829" lon="105.2900315"><ele>398.08</ele><time>2026-07-09T18:27:36.000Z</time></trkpt>
        <trkpt lat="29.2309234" lon="105.2898755"><ele>398.42</ele><time>2026-07-09T18:27:38.000Z</time></trkpt>
        <trkpt lat="29.2309665" lon="105.2897072"><ele>399.24</ele><time>2026-07-09T18:27:40.000Z</time></trkpt>
        <trkpt lat="29.2310067" lon="105.2895323"><ele>400.32</ele><time>2026-07-09T18:27:42.000Z</time></trkpt>
        <trkpt lat="29.2310748" lon="105.2893812"><ele>400.5</ele><time>2026-07-09T18:27:44.000Z</time></trkpt>
        <trkpt lat="29.2311308" lon="105.2892527"><ele>400.5</ele><time>2026-07-09T18:27:46.000Z</time></trkpt>
        <trkpt lat="29.2311855" lon="105.2891183"><ele>400.33</ele><time>2026-07-09T18:27:48.000Z</time></trkpt>
        <trkpt lat="29.2312631" lon="105.2889791"><ele>399.32</ele><time>2026-07-09T18:27:50.000Z</time></trkpt>
        <trkpt lat="29.2313597" lon="105.2888756"><ele>398.66</ele><time>2026-07-09T18:27:52.000Z</time></trkpt>
        <trkpt lat="29.2314964" lon="105.2888298"><ele>398.08</ele><time>2026-07-09T18:27:54.000Z</time></trkpt>
        <trkpt lat="29.2314964" lon="105.2888298"><ele>398.08</ele><time>2026-07-09T18:27:55.000Z</time></trkpt>
      </trkseg>
  </trk>
</gpx>